Airfield :







YOU CAN JOIN US ON...

 
LOGIN :

Register | Disclaimer

   EN    FR    IT 

 









Legend :    VFR   Marginal VFR   IFR   Intensive IFR   Very Intensive IFR
Visi :
Ceiling :
>= 8 km
>= 3000ft
5 to 8 km
1000 to 3000 ft
1500m to 5 km
500 to 1000 ft
800 to 1500m
200 to 500 ft
< 800m
< 200 ft
Symbols :   Thunderstorms  Fog  Heavy snow  Heavy precipitations  Wind > 20 kt






- Airport Elevation : 1009 ft
- IATA code : ORH


KORH - Worcester Regional

CURRENT METAR :
  • 120454Z 28023G34KT 10SM CLR M04/M11 A3031 RMK AO2 PK WND 28034/0453 SLP282 T10441106 400061056

EXPIRED METARs :
  • 120354Z 28012KT 10SM CLR M04/M09 A3027 RMK AO2 SLP268 T10391089
  • 120254Z 27010KT 10SM CLR M04/M06 A3025 RMK AO2 SLP260 T10441061 53012

TAF KORH
Valid from the 12 at 00:00 until the 13 at 00:00 UTC


112320Z 1200/1224 23005KT P6SM FEW100
FM120200 26008KT P6SM FEW250
FM120400 28011G22KT P6SM SKC
FM121000 29009G19KT P6SM SKC
FM122300 21003KT P6SM FEW200



MET'MAP, your aeronautical weather chart ! - Copyright ORBIFLY December 2007 - Disclaimer

ORBIFLY MET'MAP TEAM :

Programming & Development : Alexandra Zaïnal
Concept & original design : Baudouin d'Aumeries
Assistance for programming : Marc-Olivier Méhu
Technical & hardware support : Manuel Goepfert

Contact : metmap@orbifly.com




SOURCES & CREDITS :

   NOAA